Rixensart, Belgium
Current Conditions -  °F | °C
As of 12:25 AM on Wednesday 26 Nov 2014 (Local Time) from EBBE Reporting Station
Overcast Overcast  
Wind Chill: 37°   Ceiling: 8000
Heat Index: 41°   Visibility: 6mi
Dew Point: 37°   Wind: 6mph
Humidity: 87%   Direction: 100°E
Pressure: 30.03"   Gusts: NA
Location:  50.71°N, 4.53°E
Report Text: EBBE 252325Z AUTO 10005KT 9999 BKN080/// OVC110/// 05/03 Q1017 BLU
Loading
Personal Weather Stations






























Interactive Weather Map New forecast layout! Learn more

10-Day Weather Forecast

Advertisements
Track Severe Weather on mobile